Welcome to Northern Hawkes Bay. New Zealand.
PWS Header
      nz Flag



Hit Counter


W3C Valid W3C Valid logo


    Wairoa

Select any of the Stations below to visit their websites.










Historic Data from Weather Underground
Select the location of interest below. Wairoa is the default. Please have patience, this Data is slow to load in.
Northern Hawkes Bay Historical Data
Daily Summary for November 2, 2017 Units:  Metric    English   Both
« Previous Day
Next Day »
Daily Weekly Monthly Yearly Custom
  High: Low: Average:
Temperature: 22.7 °C 9.3 °C 16.4 °C
Dew Point: 12.6 °C 8.9 °C 10.2 °C
Humidity: 99% 44% 70%
Wind Speed: 15.8km/h 0.0km/h 2.8km/h
Wind Gust: 27.0km/h - -
Wind- - SW
Pressure: 1028.0 hPa 1020.9 hPa -
Precipitation: 0.0 mm    
Historical Graphs
 
 
Tabular Data for November 2, 2017
Time Temperature Dew Point Pressure Wind Wind Speed Wind Gust Humidity Rainfall Rate (Hourly) solar
00:01 14.9 °C 10.9 °C 1028.0 hPa Calm   6.1 km/h 77% 0.0 mm 0 W/m2
00:06 14.8 °C 11.0 °C 1028.0 hPa Calm   6.1 km/h 78% 0.0 mm 0 W/m2
00:11 14.7 °C 10.9 °C 1028.0 hPa Calm   3.5 km/h 78% 0.0 mm 0 W/m2
00:16 14.5 °C 10.7 °C 1028.0 hPa Calm   3.5 km/h 78% 0.0 mm 0 W/m2
00:21 14.4 °C 10.8 °C 1028.0 hPa Calm   3.5 km/h 79% 0.0 mm 0 W/m2
00:26 14.2 °C 10.6 °C 1028.0 hPa Calm   1.1 km/h 79% 0.0 mm 0 W/m2
00:31 14.1 °C 10.5 °C 1027.7 hPa Calm     79% 0.0 mm 0 W/m2
00:36 13.9 °C 10.5 °C 1028.0 hPa Calm     80% 0.0 mm 0 W/m2
00:41 13.9 °C 10.7 °C 1028.0 hPa Calm     81% 0.0 mm 0 W/m2
00:46 13.9 °C 10.7 °C 1027.7 hPa Calm     81% 0.0 mm 0 W/m2
00:51 13.9 °C 10.7 °C 1027.7 hPa Calm     81% 0.0 mm 0 W/m2
00:56 13.7 °C 10.7 °C 1027.7 hPa Calm     82% 0.0 mm 0 W/m2
01:01 13.7 °C 10.7 °C 1027.7 hPa Calm     82% 0.0 mm 0 W/m2
01:06 13.7 °C 10.9 °C 1027.7 hPa Calm     83% 0.0 mm 0 W/m2
01:11 13.7 °C 10.9 °C 1027.7 hPa Calm     83% 0.0 mm 0 W/m2
01:16 13.7 °C 11.1 °C 1027.7 hPa Calm     84% 0.0 mm 0 W/m2
01:21 13.6 °C 11.1 °C 1027.7 hPa Calm     85% 0.0 mm 0 W/m2
01:26 13.5 °C 11.1 °C 1027.7 hPa Calm     85% 0.0 mm 0 W/m2
01:31 13.4 °C 10.9 °C 1027.7 hPa Calm     85% 0.0 mm 0 W/m2
01:36 13.2 °C 10.7 °C 1027.3 hPa Calm     85% 0.0 mm 0 W/m2
01:41 13.0 °C 10.6 °C 1027.3 hPa Calm     85% 0.0 mm 0 W/m2
01:46 12.8 °C 10.3 °C 1027.3 hPa Calm     85% 0.0 mm 0 W/m2
01:51 12.6 °C 10.3 °C 1027.3 hPa Calm     86% 0.0 mm 0 W/m2
01:56 12.5 °C 10.4 °C 1027.3 hPa Calm     87% 0.0 mm 0 W/m2
02:01 12.4 °C 10.4 °C 1027.3 hPa Calm     88% 0.0 mm 0 W/m2
02:06 12.2 °C 10.3 °C 1027.3 hPa Calm     88% 0.0 mm 0 W/m2
02:11 12.1 °C 10.3 °C 1027.3 hPa Calm     89% 0.0 mm 0 W/m2
02:16 12.0 °C 10.2 °C 1027.3 hPa Calm     89% 0.0 mm 0 W/m2
02:21 11.9 °C 10.3 °C 1027.3 hPa Calm     90% 0.0 mm 0 W/m2
02:26 11.8 °C 10.2 °C 1027.0 hPa Calm     90% 0.0 mm 0 W/m2
02:31 11.9 °C 10.5 °C 1027.3 hPa Calm     91% 0.0 mm 0 W/m2
02:36 11.8 °C 10.6 °C 1027.0 hPa Calm     92% 0.0 mm 0 W/m2
02:41 11.7 °C 10.4 °C 1027.0 hPa Calm     92% 0.0 mm 0 W/m2
02:46 11.7 °C 10.4 °C 1027.0 hPa Calm     92% 0.0 mm 0 W/m2
02:51 11.6 °C 10.5 °C 1027.0 hPa Calm     93% 0.0 mm 0 W/m2
02:56 11.4 °C 10.3 °C 1027.0 hPa Calm     93% 0.0 mm 0 W/m2
03:01 11.4 °C 10.3 °C 1027.0 hPa Calm     93% 0.0 mm 0 W/m2
03:06 11.2 °C 10.1 °C 1027.0 hPa Calm     93% 0.0 mm 0 W/m2
03:11 11.1 °C 10.2 °C 1027.0 hPa Calm     94% 0.0 mm 0 W/m2
03:16 11.0 °C 10.1 °C 1027.0 hPa Calm     94% 0.0 mm 0 W/m2
03:21 11.0 °C 10.2 °C 1027.0 hPa Calm     95% 0.0 mm 0 W/m2
03:26 11.0 °C 10.2 °C 1027.0 hPa Calm     95% 0.0 mm 0 W/m2
03:31 10.9 °C 10.3 °C 1027.0 hPa Calm     96% 0.0 mm 0 W/m2
03:36 10.8 °C 10.2 °C 1027.0 hPa Calm     96% 0.0 mm 0 W/m2
03:41 10.7 °C 10.1 °C 1026.6 hPa Calm     96% 0.0 mm 0 W/m2
03:46 10.6 °C 10.0 °C 1026.6 hPa Calm     96% 0.0 mm 0 W/m2
03:51 10.6 °C 10.0 °C 1027.0 hPa Calm     96% 0.0 mm 0 W/m2
03:56 10.5 °C 10.1 °C 1026.6 hPa Calm     97% 0.0 mm 0 W/m2
04:01 10.5 °C 10.1 °C 1027.0 hPa Calm     97% 0.0 mm 0 W/m2
04:06 10.5 °C 10.2 °C 1026.6 hPa Calm     98% 0.0 mm 0 W/m2
04:11 10.3 °C 10.0 °C 1026.6 hPa Calm     98% 0.0 mm 0 W/m2
04:16 10.0 °C 9.7 °C 1026.6 hPa Calm     98% 0.0 mm 0 W/m2
04:21 10.3 °C 10.2 °C 1026.6 hPa Calm     99% 0.0 mm 0 W/m2
04:26 10.3 °C 10.2 °C 1026.3 hPa Calm     99% 0.0 mm 0 W/m2
04:31 10.2 °C 10.1 °C 1026.3 hPa Calm     99% 0.0 mm 0 W/m2
04:36 10.2 °C 10.1 °C 1026.6 hPa Calm     99% 0.0 mm 0 W/m2
04:41 10.0 °C 9.8 °C 1026.3 hPa Calm     99% 0.0 mm 0 W/m2
04:46 10.0 °C 9.8 °C 1026.3 hPa Calm     99% 0.0 mm 0 W/m2
04:51 9.9 °C 9.8 °C 1026.6 hPa Calm     99% 0.0 mm 0 W/m2
04:56 9.6 °C 9.4 °C 1026.3 hPa Calm     99% 0.0 mm 0 W/m2
05:01 9.9 °C 9.8 °C 1026.0 hPa Calm     99% 0.0 mm 0 W/m2
05:06 9.8 °C 9.7 °C 1026.0 hPa Calm     99% 0.0 mm 0 W/m2
05:11 9.7 °C 9.6 °C 1026.3 hPa Calm     99% 0.0 mm 0 W/m2
05:16 9.4 °C 9.3 °C 1026.3 hPa Calm     99% 0.0 mm 0 W/m2
05:21 9.6 °C 9.4 °C 1026.3 hPa Calm     99% 0.0 mm 0 W/m2
05:26 9.7 °C 9.6 °C 1026.6 hPa Calm     99% 0.0 mm 0 W/m2
05:31 9.7 °C 9.6 °C 1026.6 hPa Calm     99% 0.0 mm 0 W/m2
05:36 9.6 °C 9.4 °C 1026.3 hPa Calm     99% 0.0 mm 0 W/m2
05:55 9.8 °C 9.7 °C 1026.6 hPa Calm     99% 0.0 mm 0 W/m2
06:00 10.0 °C 9.8 °C 1026.6 hPa Calm     99% 0.0 mm 0 W/m2
06:05 9.8 °C 9.7 °C 1026.6 hPa Calm     99% 0.0 mm 0 W/m2
06:10 9.7 °C 9.6 °C 1026.6 hPa Calm     99% 0.0 mm 3 W/m2
06:15 9.6 °C 9.4 °C 1026.6 hPa Calm     99% 0.0 mm 5 W/m2
06:20 9.3 °C 9.2 °C 1026.6 hPa Calm     99% 0.0 mm 8 W/m2
06:25 9.4 °C 9.3 °C 1026.6 hPa Calm     99% 0.0 mm 10 W/m2
06:30 9.3 °C 9.2 °C 1026.6 hPa Calm     99% 0.0 mm 13 W/m2
06:35 9.3 °C 9.2 °C 1026.6 hPa Calm     99% 0.0 mm 17 W/m2
06:40 9.5 °C 9.3 °C 1027.0 hPa Calm     99% 0.0 mm 20 W/m2
06:45 9.4 °C 9.3 °C 1026.6 hPa Calm     99% 0.0 mm 22 W/m2
06:50 9.5 °C 9.3 °C 1026.6 hPa Calm     99% 0.0 mm 25 W/m2
06:55 9.5 °C 9.3 °C 1026.6 hPa Calm     99% 0.0 mm 40 W/m2
07:00 10.1 °C 9.9 °C 1026.6 hPa Calm     99% 0.0 mm 93 W/m2
07:05 10.8 °C 10.7 °C 1026.6 hPa Calm     99% 0.0 mm 105 W/m2
07:10 11.6 °C 11.3 °C 1026.6 hPa Calm     98% 0.0 mm 115 W/m2
07:15 12.3 °C 11.8 °C 1026.6 hPa Calm   2.6 km/h 97% 0.0 mm 121 W/m2
07:20 12.8 °C 11.9 °C 1026.6 hPa North 2.6 km/h 6.1 km/h 94% 0.0 mm 126 W/m2
07:25 13.3 °C 11.6 °C 1026.6 hPa North 6.1 km/h 7.2 km/h 89% 0.0 mm 131 W/m2
07:30 13.5 °C 11.2 °C 1026.6 hPa North 2.6 km/h 7.2 km/h 86% 0.0 mm 137 W/m2
07:36 13.9 °C 11.4 °C 1026.6 hPa NNW 2.6 km/h 6.1 km/h 85% 0.0 mm 145 W/m2
07:41 14.3 °C 11.3 °C 1026.6 hPa NNW 1.1 km/h 6.1 km/h 82% 0.0 mm 151 W/m2
07:46 14.8 °C 11.4 °C 1026.6 hPa North 1.1 km/h 6.1 km/h 80% 0.0 mm 160 W/m2
07:51 15.3 °C 11.3 °C 1026.6 hPa NNW 1.1 km/h 5.0 km/h 77% 0.0 mm 168 W/m2
07:56 16.0 °C 11.8 °C 1026.6 hPa NNW 1.1 km/h 5.0 km/h 76% 0.0 mm 179 W/m2
08:02 16.5 °C 11.8 °C 1026.6 hPa NNW 2.6 km/h 5.0 km/h 74% 0.0 mm 198 W/m2
08:07 16.5 °C 11.4 °C 1026.6 hPa NW 1.1 km/h 3.5 km/h 72% 0.0 mm 208 W/m2
08:12 16.5 °C 11.4 °C 1026.6 hPa NW 1.1 km/h 5.0 km/h 72% 0.0 mm 219 W/m2
08:17 16.8 °C 11.9 °C 1026.6 hPa NNW 2.6 km/h 5.0 km/h 73% 0.0 mm 232 W/m2
08:22 17.3 °C 12.2 °C 1026.6 hPa NW 1.1 km/h 3.5 km/h 72% 0.0 mm 246 W/m2
08:27 17.6 °C 12.3 °C 1026.6 hPa NW 1.1 km/h 5.0 km/h 71% 0.0 mm 258 W/m2
08:32 17.9 °C 12.3 °C 1026.6 hPa NNW 1.1 km/h 5.0 km/h 70% 0.0 mm 272 W/m2
08:37 18.2 °C 12.0 °C 1026.6 hPa NNE 1.1 km/h 5.0 km/h 67% 0.0 mm 285 W/m2
08:42 18.7 °C 12.2 °C 1026.6 hPa ENE 1.1 km/h 7.2 km/h 66% 0.0 mm 295 W/m2
08:47 18.8 °C 12.3 °C 1026.6 hPa ENE 3.5 km/h 7.2 km/h 66% 0.0 mm 310 W/m2
08:52 18.7 °C 12.2 °C 1026.6 hPa NNE 1.1 km/h 7.2 km/h 66% 0.0 mm 322 W/m2
08:57 19.2 °C 12.5 °C 1026.6 hPa NE 1.1 km/h 7.2 km/h 65% 0.0 mm 340 W/m2
09:02 19.2 °C 11.3 °C 1026.6 hPa ENE 2.6 km/h 11.1 km/h 60% 0.0 mm 355 W/m2
09:07 19.2 °C 11.3 °C 1026.6 hPa NE 3.5 km/h 14.8 km/h 60% 0.0 mm 370 W/m2
09:12 19.5 °C 11.6 °C 1026.3 hPa NE 5.0 km/h 14.8 km/h 60% 0.0 mm 377 W/m2
09:17 19.1 °C 11.4 °C 1026.3 hPa NE 6.1 km/h 15.8 km/h 61% 0.0 mm 388 W/m2
09:22 19.2 °C 12.0 °C 1026.3 hPa NE 2.6 km/h 15.8 km/h 63% 0.0 mm 402 W/m2
09:27 19.4 °C 11.9 °C 1026.3 hPa NNE 5.0 km/h 15.8 km/h 62% 0.0 mm 428 W/m2
09:32 19.6 °C 12.4 °C 1026.3 hPa NNE 5.0 km/h 15.8 km/h 63% 0.0 mm 452 W/m2
09:37 19.2 °C 11.3 °C 1026.0 hPa NNE 15.8 km/h 20.9 km/h 60% 0.0 mm 464 W/m2
09:42 19.2 °C 12.0 °C 1026.0 hPa North 9.7 km/h 20.9 km/h 63% 0.0 mm 460 W/m2
09:47 19.6 °C 12.6 °C 1026.0 hPa North 7.2 km/h 20.9 km/h 64% 0.0 mm 473 W/m2
09:52 19.4 °C 11.4 °C 1026.3 hPa North 11.1 km/h 21.9 km/h 60% 0.0 mm 479 W/m2
09:57 18.7 °C 10.8 °C 1026.3 hPa North 15.8 km/h 23.3 km/h 60% 0.0 mm 490 W/m2
10:02 18.6 °C 10.9 °C 1026.0 hPa North 9.7 km/h 23.3 km/h 61% 0.0 mm 505 W/m2
10:07 18.6 °C 11.2 °C 1026.0 hPa North 6.1 km/h 21.9 km/h 62% 0.0 mm 516 W/m2
10:12 19.1 °C 11.7 °C 1026.0 hPa NNE 7.2 km/h 21.9 km/h 62% 0.0 mm 109 W/m2
10:17 19.0 °C 11.6 °C 1026.0 hPa NNE 6.1 km/h 27.0 km/h 62% 0.0 mm 430 W/m2
10:22 19.4 °C 11.4 °C 1026.0 hPa NNE 5.0 km/h 27.0 km/h 60% 0.0 mm 594 W/m2
10:27 19.5 °C 11.3 °C 1026.0 hPa NNE 12.2 km/h 19.5 km/h 59% 0.0 mm 596 W/m2
10:32 19.6 °C 11.6 °C 1025.6 hPa North 11.1 km/h 18.3 km/h 60% 0.0 mm 417 W/m2
10:37 19.3 °C 11.1 °C 1025.6 hPa NNE 15.8 km/h 20.9 km/h 59% 0.0 mm 322 W/m2
10:42 18.8 °C 11.1 °C 1026.0 hPa North 6.1 km/h 20.9 km/h 61% 0.0 mm 608 W/m2
10:47 19.5 °C 11.8 °C 1026.0 hPa North 11.1 km/h 20.9 km/h 61% 0.0 mm 293 W/m2
10:49 19.1 °C 10.7 °C 1026.0 hPa NNW 12.2 km/h 19.5 km/h 58% 0.0 mm 323 W/m2
10:54 18.9 °C 10.4 °C 1025.6 hPa NNW 15.8 km/h 20.9 km/h 58% 0.0 mm 332 W/m2
10:56 18.5 °C 9.8 °C 1025.6 hPa NNW 12.2 km/h 20.9 km/h 57% 0.0 mm 333 W/m2
11:01 19.0 °C 10.3 °C 1025.6 hPa North 8.7 km/h 20.9 km/h 57% 0.0 mm 431 W/m2
11:06 19.3 °C 10.6 °C 1025.3 hPa North 3.5 km/h 18.3 km/h 57% 0.0 mm 303 W/m2
11:27 18.8 °C 10.6 °C 1025.3 hPa North 8.7 km/h 23.3 km/h 59% 0.0 mm 280 W/m2
11:32 19.4 °C 11.2 °C 1025.6 hPa North 7.2 km/h 23.3 km/h 59% 0.0 mm 371 W/m2
11:37 20.1 °C 10.8 °C 1025.3 hPa North 2.6 km/h 19.5 km/h 55% 0.0 mm 425 W/m2
11:42 20.1 °C 11.1 °C 1025.3 hPa NNE 3.5 km/h 19.5 km/h 56% 0.0 mm 351 W/m2
11:47 19.7 °C 10.9 °C 1025.3 hPa NE 7.2 km/h 19.5 km/h 57% 0.0 mm 370 W/m2
12:04 20.1 °C 11.3 °C 1024.9 hPa NNE 7.2 km/h 20.9 km/h 57% 0.0 mm 478 W/m2
12:09 20.1 °C 11.1 °C 1024.9 hPa NNE 2.6 km/h 19.5 km/h 56% 0.0 mm 493 W/m2
12:14 20.5 °C 10.6 °C 1024.9 hPa NE 11.1 km/h 17.2 km/h 53% 0.0 mm 606 W/m2
12:19 20.6 °C 10.7 °C 1024.9 hPa NE 11.1 km/h 21.9 km/h 53% 0.0 mm 505 W/m2
12:24 20.3 °C 10.1 °C 1024.6 hPa NE 6.1 km/h 21.9 km/h 52% 0.0 mm 358 W/m2
12:29 20.3 °C 9.8 °C 1024.6 hPa NE 5.0 km/h 17.2 km/h 51% 0.0 mm 328 W/m2
12:34 20.3 °C 10.4 °C 1024.6 hPa NE 7.2 km/h 15.8 km/h 53% 0.0 mm 296 W/m2
12:39 20.0 °C 10.2 °C 1024.6 hPa NE 9.7 km/h 19.5 km/h 53% 0.0 mm 263 W/m2
12:44 20.1 °C 10.8 °C 1024.6 hPa NE 5.0 km/h 19.5 km/h 55% 0.0 mm 247 W/m2
12:49 20.1 °C 10.2 °C 1024.3 hPa NE 8.7 km/h 15.8 km/h 53% 0.0 mm 266 W/m2
12:54 20.1 °C 10.2 °C 1024.3 hPa Calm   15.8 km/h 53% 0.0 mm 249 W/m2
12:59 20.2 °C 10.3 °C 1024.3 hPa NNE 9.7 km/h 15.8 km/h 53% 0.0 mm 240 W/m2
13:05 20.3 °C 10.1 °C 1024.3 hPa North 3.5 km/h 15.8 km/h 52% 0.0 mm 254 W/m2
13:10 20.3 °C 10.4 °C 1023.9 hPa NNE 7.2 km/h 13.4 km/h 53% 0.0 mm 261 W/m2
13:15 20.3 °C 10.1 °C 1024.3 hPa NNE 7.2 km/h 17.2 km/h 52% 0.0 mm 273 W/m2
13:20 20.6 °C 10.7 °C 1023.9 hPa NNW 1.1 km/h 17.2 km/h 53% 0.0 mm 555 W/m2
13:25 20.6 °C 11.0 °C 1023.9 hPa WNW 2.6 km/h 17.2 km/h 54% 0.0 mm 346 W/m2
13:30 20.9 °C 11.3 °C 1023.9 hPa Calm   12.2 km/h 54% 0.0 mm 365 W/m2
13:35 20.6 °C 10.1 °C 1023.6 hPa WNW 2.6 km/h 11.1 km/h 51% 0.0 mm 341 W/m2
13:40 20.8 °C 11.2 °C 1023.6 hPa WNW 6.1 km/h 11.1 km/h 54% 0.0 mm 696 W/m2
13:46 21.3 °C 11.1 °C 1023.6 hPa WNW 2.6 km/h 9.7 km/h 52% 0.0 mm 411 W/m2
13:51 21.1 °C 9.7 °C 1023.6 hPa NW 6.1 km/h 14.8 km/h 48% 0.0 mm 381 W/m2
13:56 21.2 °C 10.9 °C 1023.6 hPa Calm   14.8 km/h 52% 0.0 mm 402 W/m2
14:02 21.7 °C 10.8 °C 1023.2 hPa NW 6.1 km/h 9.7 km/h 50% 0.0 mm 406 W/m2
14:07 21.4 °C 9.6 °C 1023.2 hPa NNW 5.0 km/h 14.8 km/h 47% 0.0 mm 352 W/m2
14:12 21.6 °C 10.1 °C 1023.2 hPa Calm   14.8 km/h 48% 0.0 mm 884 W/m2
14:17 22.6 °C 11.1 °C 1023.2 hPa North 3.5 km/h 8.7 km/h 48% 0.0 mm 331 W/m2
14:23 22.7 °C 9.8 °C 1022.9 hPa NNE 2.6 km/h 8.7 km/h 44% 0.0 mm 627 W/m2
14:28 22.7 °C 9.8 °C 1022.9 hPa NNW 5.0 km/h 15.8 km/h 44% 0.0 mm 224 W/m2
14:33 22.6 °C 10.1 °C 1022.9 hPa NW 6.1 km/h 15.8 km/h 45% 0.0 mm 838 W/m2
14:38 22.2 °C 9.7 °C 1022.6 hPa Calm   11.1 km/h 45% 0.0 mm 267 W/m2
14:43 21.8 °C 10.0 °C 1022.6 hPa West 3.5 km/h 11.1 km/h 47% 0.0 mm 288 W/m2
14:48 21.9 °C 10.1 °C 1022.6 hPa Calm   9.7 km/h 47% 0.0 mm 319 W/m2
14:53 22.2 °C 9.7 °C 1022.6 hPa WNW 6.1 km/h 12.2 km/h 45% 0.0 mm 792 W/m2
14:58 21.8 °C 9.7 °C 1022.2 hPa NW 3.5 km/h 13.4 km/h 46% 0.0 mm 319 W/m2
15:03 21.7 °C 9.9 °C 1022.2 hPa NNW 8.7 km/h 13.4 km/h 47% 0.0 mm 340 W/m2
15:08 21.6 °C 9.8 °C 1022.2 hPa NNW 2.6 km/h 13.4 km/h 47% 0.0 mm 314 W/m2
15:13 22.1 °C 10.3 °C 1022.2 hPa NW 7.2 km/h 12.2 km/h 47% 0.0 mm 254 W/m2
15:18 21.8 °C 9.7 °C 1022.2 hPa NW 2.6 km/h 11.1 km/h 46% 0.0 mm 221 W/m2
15:23 21.5 °C 9.7 °C 1022.2 hPa NNW 2.6 km/h 11.1 km/h 47% 0.0 mm 190 W/m2
15:28 21.4 °C 9.3 °C 1021.9 hPa NW 3.5 km/h 9.7 km/h 46% 0.0 mm 185 W/m2
15:33 21.3 °C 9.6 °C 1021.9 hPa NW 3.5 km/h 12.2 km/h 47% 0.0 mm 241 W/m2
15:38 21.3 °C 9.8 °C 1021.9 hPa NNW 1.1 km/h 12.2 km/h 48% 0.0 mm 230 W/m2
15:43 21.3 °C 10.2 °C 1022.2 hPa Calm   12.2 km/h 49% 0.0 mm 218 W/m2
15:48 21.6 °C 10.1 °C 1022.2 hPa Calm   12.2 km/h 48% 0.0 mm 210 W/m2
15:53 21.9 °C 10.7 °C 1021.9 hPa Calm   5.0 km/h 49% 0.0 mm 215 W/m2
15:58 21.7 °C 12.0 °C 1021.9 hPa Calm   7.2 km/h 54% 0.0 mm 233 W/m2
16:03 21.4 °C 11.7 °C 1021.6 hPa SW 8.7 km/h 12.2 km/h 54% 0.0 mm 214 W/m2
16:08 21.1 °C 10.9 °C 1021.6 hPa Calm   12.2 km/h 52% 0.0 mm 203 W/m2
16:13 21.2 °C 9.8 °C 1021.6 hPa Calm   12.2 km/h 48% 0.0 mm 223 W/m2
16:18 22.7 °C 10.5 °C 1021.6 hPa Calm   13.4 km/h 46% 0.0 mm 344 W/m2
16:23 22.7 °C 9.8 °C 1021.6 hPa ENE 6.1 km/h 14.8 km/h 44% 0.0 mm 322 W/m2
16:28 22.2 °C 10.7 °C 1021.6 hPa NW 7.2 km/h 18.3 km/h 48% 0.0 mm 271 W/m2
16:33 22.3 °C 10.4 °C 1021.6 hPa NW 3.5 km/h 18.3 km/h 47% 0.0 mm 586 W/m2
16:38 22.1 °C 9.3 °C 1021.6 hPa NW 9.7 km/h 20.9 km/h 44% 0.0 mm 237 W/m2
16:43 21.6 °C 10.1 °C 1021.6 hPa NW 5.0 km/h 20.9 km/h 48% 0.0 mm 224 W/m2
16:48 21.6 °C 10.4 °C 1021.6 hPa NW 11.1 km/h 19.5 km/h 49% 0.0 mm 236 W/m2
16:53 21.4 °C 10.8 °C 1021.6 hPa WNW 5.0 km/h 19.5 km/h 51% 0.0 mm 216 W/m2
16:58 22.3 °C 10.4 °C 1021.6 hPa NW 7.2 km/h 19.5 km/h 47% 0.0 mm 357 W/m2
17:03 22.3 °C 9.4 °C 1021.6 hPa NNW 14.8 km/h 24.5 km/h 44% 0.0 mm 149 W/m2
17:08 21.8 °C 10.0 °C 1021.6 hPa North 11.1 km/h 24.5 km/h 47% 0.0 mm 321 W/m2
17:13 21.6 °C 9.5 °C 1021.6 hPa NNW 8.7 km/h 23.3 km/h 46% 0.0 mm 304 W/m2
17:18 21.7 °C 9.9 °C 1021.2 hPa NW 13.4 km/h 23.3 km/h 47% 0.0 mm 293 W/m2
17:23 21.7 °C 9.9 °C 1021.2 hPa NW 6.1 km/h 18.3 km/h 47% 0.0 mm 283 W/m2
17:28 21.8 °C 9.7 °C 1021.6 hPa NW 12.2 km/h 19.5 km/h 46% 0.0 mm 275 W/m2
17:33 21.9 °C 9.8 °C 1021.2 hPa NW 7.2 km/h 19.5 km/h 46% 0.0 mm 263 W/m2
17:38 21.8 °C 10.0 °C 1021.2 hPa NW 8.7 km/h 17.2 km/h 47% 0.0 mm 143 W/m2
17:43 21.9 °C 9.8 °C 1021.2 hPa NW 6.1 km/h 17.2 km/h 46% 0.0 mm 250 W/m2
17:48 22.0 °C 9.2 °C 1021.2 hPa NW 6.1 km/h 14.8 km/h 44% 0.0 mm 245 W/m2
17:53 21.6 °C 9.5 °C 1021.2 hPa NNW 12.2 km/h 15.8 km/h 46% 0.0 mm 212 W/m2
17:58 21.5 °C 9.7 °C 1021.2 hPa NNW 6.1 km/h 15.8 km/h 47% 0.0 mm 194 W/m2
18:03 21.6 °C 9.5 °C 1021.2 hPa NW 5.0 km/h 19.5 km/h 46% 0.0 mm 186 W/m2
18:08 21.0 °C 8.9 °C 1021.2 hPa NW 12.2 km/h 20.9 km/h 46% 0.0 mm 56 W/m2
18:13 20.2 °C 9.2 °C 1020.9 hPa NW 7.2 km/h 20.9 km/h 49% 0.0 mm 53 W/m2
18:18 20.0 °C 9.6 °C 1021.2 hPa NW 12.2 km/h 20.9 km/h 51% 0.0 mm 54 W/m2
18:23 19.9 °C 9.8 °C 1021.2 hPa NW 8.7 km/h 21.9 km/h 52% 0.0 mm 105 W/m2
18:28 19.9 °C 10.1 °C 1021.2 hPa NW 11.1 km/h 21.9 km/h 53% 0.0 mm 56 W/m2
18:33 19.7 °C 10.2 °C 1021.2 hPa NW 5.0 km/h 19.5 km/h 54% 0.0 mm 46 W/m2
18:38 19.5 °C 9.9 °C 1021.2 hPa NW 6.1 km/h 19.5 km/h 54% 0.0 mm 42 W/m2
18:43 19.3 °C 10.1 °C 1021.2 hPa NW 7.2 km/h 14.8 km/h 55% 0.0 mm 40 W/m2
18:48 19.2 °C 9.7 °C 1021.2 hPa NW 6.1 km/h 21.9 km/h 54% 0.0 mm 41 W/m2
18:53 19.2 °C 9.4 °C 1021.2 hPa NW 9.7 km/h 21.9 km/h 53% 0.0 mm 43 W/m2
18:58 19.2 °C 9.4 °C 1021.2 hPa NNW 11.1 km/h 20.9 km/h 53% 0.0 mm 41 W/m2
19:03 19.1 °C 9.3 °C 1021.6 hPa NNW 2.6 km/h 17.2 km/h 53% 0.0 mm 35 W/m2
19:08 19.0 °C 9.2 °C 1021.6 hPa Calm   17.2 km/h 53% 0.0 mm 33 W/m2
19:13 18.8 °C 9.6 °C 1021.6 hPa NNW 2.6 km/h 17.2 km/h 55% 0.0 mm 27 W/m2
19:18 18.7 °C 9.5 °C 1021.6 hPa NNW 1.1 km/h 8.7 km/h 55% 0.0 mm 24 W/m2
19:23 18.5 °C 9.3 °C 1021.6 hPa North 2.6 km/h 11.1 km/h 55% 0.0 mm 19 W/m2
19:28 18.3 °C 9.4 °C 1021.6 hPa Calm   12.2 km/h 56% 0.0 mm 15 W/m2
19:33 18.1 °C 9.2 °C 1021.6 hPa Calm   12.2 km/h 56% 0.0 mm 10 W/m2
19:38 17.9 °C 9.3 °C 1021.6 hPa Calm   8.7 km/h 57% 0.0 mm 5 W/m2
19:43 17.7 °C 9.3 °C 1021.6 hPa North 3.5 km/h 11.1 km/h 58% 0.0 mm 2 W/m2
19:48 17.5 °C 9.2 °C 1021.6 hPa North 1.1 km/h 11.1 km/h 58% 0.0 mm 0 W/m2
19:53 17.4 °C 9.1 °C 1021.6 hPa Calm   7.2 km/h 58% 0.0 mm 0 W/m2
19:58 17.2 °C 9.4 °C 1021.9 hPa Calm   6.1 km/h 60% 0.0 mm 0 W/m2
20:03 17.0 °C 9.4 °C 1021.6 hPa Calm   3.5 km/h 61% 0.0 mm 0 W/m2
20:08 16.7 °C 9.6 °C 1021.9 hPa Calm   2.6 km/h 63% 0.0 mm 0 W/m2
20:13 16.5 °C 9.4 °C 1021.9 hPa North 1.1 km/h 3.5 km/h 63% 0.0 mm 0 W/m2
20:18 16.3 °C 9.5 °C 1022.2 hPa Calm   3.5 km/h 64% 0.0 mm 0 W/m2
20:23 16.2 °C 9.4 °C 1021.9 hPa Calm   3.5 km/h 64% 0.0 mm 0 W/m2
20:28 16.2 °C 9.6 °C 1022.2 hPa Calm   5.0 km/h 65% 0.0 mm 0 W/m2
20:33 16.0 °C 9.4 °C 1022.2 hPa Calm   5.0 km/h 65% 0.0 mm 0 W/m2
20:38 15.9 °C 9.6 °C 1022.2 hPa Calm   1.1 km/h 66% 0.0 mm 0 W/m2
20:43 15.8 °C 9.4 °C 1022.2 hPa Calm   1.1 km/h 66% 0.0 mm 0 W/m2
20:48 15.7 °C 9.6 °C 1022.2 hPa Calm   1.1 km/h 67% 0.0 mm 0 W/m2
20:53 15.5 °C 9.4 °C 1022.2 hPa Calm   1.1 km/h 67% 0.0 mm 0 W/m2
20:58 15.4 °C 9.3 °C 1022.2 hPa Calm     67% 0.0 mm 0 W/m2
21:03 15.4 °C 9.6 °C 1022.2 hPa Calm   1.1 km/h 68% 0.0 mm 0 W/m2
21:08 15.4 °C 9.6 °C 1022.2 hPa Calm   2.6 km/h 68% 0.0 mm 0 W/m2
21:13 15.4 °C 9.3 °C 1022.6 hPa Calm   3.5 km/h 67% 0.0 mm 0 W/m2
21:18 15.4 °C 9.3 °C 1022.6 hPa Calm   3.5 km/h 67% 0.0 mm 0 W/m2
21:23 15.2 °C 9.3 °C 1022.2 hPa Calm   3.5 km/h 68% 0.0 mm 0 W/m2
21:28 15.2 °C 9.3 °C 1022.6 hPa NNW 2.6 km/h 7.2 km/h 68% 0.0 mm 0 W/m2
21:33 15.2 °C 9.3 °C 1022.6 hPa Calm   7.2 km/h 68% 0.0 mm 0 W/m2
21:38 15.2 °C 9.1 °C 1022.2 hPa Calm   5.0 km/h 67% 0.0 mm 0 W/m2
21:43 15.1 °C 9.0 °C 1022.2 hPa NNW 1.1 km/h 7.2 km/h 67% 0.0 mm 0 W/m2
21:48 15.2 °C 9.1 °C 1022.2 hPa Calm   7.2 km/h 67% 0.0 mm 0 W/m2
21:53 15.0 °C 8.9 °C 1022.6 hPa Calm   5.0 km/h 67% 0.0 mm 0 W/m2
21:58 14.7 °C 9.1 °C 1022.6 hPa Calm     69% 0.0 mm 0 W/m2
22:03 14.6 °C 9.2 °C 1022.6 hPa Calm     70% 0.0 mm 0 W/m2
22:08 14.4 °C 9.2 °C 1022.2 hPa Calm     71% 0.0 mm 0 W/m2
22:13 14.1 °C 8.9 °C 1022.2 hPa Calm   3.5 km/h 71% 0.0 mm 0 W/m2
22:18 14.3 °C 9.3 °C 1022.2 hPa Calm   3.5 km/h 72% 0.0 mm 0 W/m2
22:23 14.3 °C 9.6 °C 1022.2 hPa Calm   1.1 km/h 73% 0.0 mm 0 W/m2
22:28 14.3 °C 9.6 °C 1022.2 hPa Calm   2.6 km/h 73% 0.0 mm 0 W/m2
22:33 14.3 °C 9.7 °C 1022.2 hPa Calm   2.6 km/h 74% 0.0 mm 0 W/m2
22:38 14.0 °C 9.4 °C 1022.2 hPa Calm     74% 0.0 mm 0 W/m2
22:43 13.9 °C 9.6 °C 1022.2 hPa Calm     75% 0.0 mm 0 W/m2
22:48 13.7 °C 9.3 °C 1022.2 hPa Calm     75% 0.0 mm 0 W/m2
22:53 13.9 °C 9.7 °C 1022.6 hPa Calm     76% 0.0 mm 0 W/m2
22:58 13.7 °C 9.6 °C 1022.2 hPa Calm   1.1 km/h 76% 0.0 mm 0 W/m2
23:03 13.7 °C 9.6 °C 1022.2 hPa Calm   1.1 km/h 76% 0.0 mm 0 W/m2
23:08 13.2 °C 9.3 °C 1022.2 hPa Calm     77% 0.0 mm 0 W/m2
23:13 12.8 °C 9.3 °C 1022.2 hPa Calm     79% 0.0 mm 0 W/m2
23:18 12.7 °C 9.2 °C 1022.2 hPa Calm     79% 0.0 mm 0 W/m2
23:23 12.7 °C 9.2 °C 1022.2 hPa Calm     79% 0.0 mm 0 W/m2
23:28 12.6 °C 9.1 °C 1022.2 hPa Calm     79% 0.0 mm 0 W/m2
23:33 12.6 °C 9.1 °C 1022.2 hPa Calm     79% 0.0 mm 0 W/m2
23:38 12.7 °C 9.5 °C 1021.9 hPa Calm     81% 0.0 mm 0 W/m2
23:43 12.5 °C 9.3 °C 1021.9 hPa Calm     81% 0.0 mm 0 W/m2
23:48 12.3 °C 9.1 °C 1021.9 hPa Calm     81% 0.0 mm 0 W/m2
23:53 12.2 °C 9.2 °C 1021.9 hPa Calm     82% 0.0 mm 0 W/m2
23:58 12.3 °C 9.3 °C 1021.9 hPa Calm     82% 0.0 mm 0 W/m2
Northern Hawkes Bay. New Zealand Historic Data
Compliments of Weather Underground - 2.25 mb